Time;durP1;ratioP1;P1;durP2;ratioP2;P2;SDS_P1;SDS_P2;PMS_P1;PMS_P2;Temp;Humidity;BMP_temperature;BMP_pressure;BME280_temperature;BME280_humidity;BME280_pressure;Samples;Min_cycle;Max_cycle;Signal;HPM_P1;HPM_P2
2022/07/14 00:01:47;;;;;;;3.88;1.02;;;;;;;18.60;87.41;99768.34;30716594;28;20070;-75
2022/07/14 00:16:49;;;;;;;4.30;1.70;;;;;;;18.40;90.87;99769.06;30709052;28;20081;-77
2022/07/14 00:31:51;;;;;;;1.48;1.25;;;;;;;18.18;93.27;99757.78;30747439;28;20592;-78
2022/07/14 00:46:53;;;;;;;1.98;1.42;;;;;;;18.27;92.88;99754.13;30713252;28;20094;-77
2022/07/14 01:01:55;;;;;;;1.80;1.30;;;;;;;18.18;90.65;99751.53;30734118;28;20501;-76
2022/07/14 01:16:57;;;;;;;2.08;1.42;;;;;;;18.05;92.95;99738.84;30718689;28;20074;-77
2022/07/14 01:31:59;;;;;;;2.15;1.60;;;;;;;17.80;95.00;99747.72;30755347;28;20067;-79
2022/07/14 01:47:02;;;;;;;5.05;1.95;;;;;;;17.68;96.47;99732.31;30743635;28;20055;-76
2022/07/14 02:02:04;;;;;;;3.42;2.33;;;;;;;17.54;97.54;99744.03;30717713;28;20051;-76
2022/07/14 02:17:06;;;;;;;2.00;1.63;;;;;;;17.36;98.17;99743.00;30729292;28;20061;-75
2022/07/14 02:32:08;;;;;;;3.00;1.85;;;;;;;17.35;96.79;99730.50;30682827;28;20402;-77
2022/07/14 02:47:10;;;;;;;2.95;2.15;;;;;;;17.37;96.38;99719.81;30729127;28;20055;-77
2022/07/14 03:02:12;;;;;;;2.92;2.13;;;;;;;17.64;94.92;99748.19;30698666;28;20048;-76
2022/07/14 03:17:15;;;;;;;4.72;2.92;;;;;;;17.95;93.27;99742.22;30728051;28;20101;-75
2022/07/14 03:32:17;;;;;;;5.72;2.83;;;;;;;18.34;91.24;99750.97;30706312;28;20081;-75
2022/07/14 03:47:19;;;;;;;5.82;3.33;;;;;;;18.91;88.36;99755.91;30697154;28;20395;-76
2022/07/14 04:02:21;;;;;;;6.10;3.67;;;;;;;19.15;86.01;99764.69;30731173;28;20414;-76
2022/07/14 04:17:23;;;;;;;8.82;3.88;;;;;;;18.76;87.28;99777.25;30706012;28;20055;-75
2022/07/14 04:32:25;;;;;;;5.25;4.28;;;;;;;19.16;85.95;99774.44;30714587;28;20070;-76
2022/07/14 04:47:28;;;;;;;5.57;4.53;;;;;;;19.93;80.65;99770.88;30703721;28;20074;-77
2022/07/14 05:02:30;;;;;;;6.00;4.38;;;;;;;20.19;79.18;99775.56;30713850;28;20136;-77
2022/07/14 05:17:32;;;;;;;7.15;3.97;;;;;;;20.79;75.25;99792.94;30748446;28;20066;-78
2022/07/14 05:32:35;;;;;;;6.38;4.35;;;;;;;21.39;72.79;99797.88;30716065;28;20142;-77
2022/07/14 05:47:38;;;;;;;6.63;4.43;;;;;;;21.57;71.69;99812.47;30729343;28;20079;-75
2022/07/14 06:02:41;;;;;;;6.40;4.77;;;;;;;21.50;71.70;99812.94;30699184;28;20056;-76
2022/07/14 06:17:42;;;;;;;6.93;4.10;;;;;;;21.27;72.03;99810.16;30717435;28;20150;-77
2022/07/14 06:32:44;;;;;;;5.43;4.05;;;;;;;21.08;72.62;99809.84;30729666;28;20117;-76
2022/07/14 06:47:47;;;;;;;12.63;5.70;;;;;;;21.03;72.85;99812.56;30707197;28;20458;-75
2022/07/14 07:02:49;;;;;;;5.43;4.30;;;;;;;22.11;69.00;99802.69;30701862;28;20054;-73
2022/07/14 07:17:51;;;;;;;6.85;3.60;;;;;;;22.00;68.48;99797.16;30710508;28;21949;-72
2022/07/14 07:32:55;;;;;;;5.40;3.42;;;;;;;22.37;67.69;99804.41;30681343;28;20059;-77
2022/07/14 07:47:57;;;;;;;;;;;;;;;22.21;65.64;99816.22;30718818;28;20055;-82
2022/07/14 08:03:01;;;;;;;3.20;2.80;;;;;;;23.46;60.38;99820.28;30703620;28;19929;-71
2022/07/14 08:18:04;;;;;;;3.28;2.33;;;;;;;24.03;56.41;99831.72;30711673;28;20058;-77
2022/07/14 08:33:06;;;;;;;7.78;2.00;;;;;;;23.37;56.84;99840.00;30725792;28;20386;-84
2022/07/14 08:48:09;;;;;;;5.47;2.03;;;;;;;25.40;52.50;99835.44;30715625;28;20063;-72
2022/07/14 09:03:11;;;;;;;3.65;1.58;;;;;;;24.09;53.14;99858.09;30736634;28;20134;-72
2022/07/14 09:18:33;;;;;;;3.23;1.77;;;;;;;25.05;50.26;99863.44;30736520;28;20114;-72
2022/07/14 09:33:35;;;;;;;1.65;1.38;;;;;;;24.37;51.51;99876.53;30715636;28;20061;-72
2022/07/14 12:55:03;;;;;;;1.77;0.90;;;;;;;25.30;45.82;99925.25;30805043;26;20055;-82
2022/07/14 13:10:13;;;;;;;1.90;0.90;;;;;;;25.32;45.78;99945.69;30852279;28;20149;-82
2022/07/14 13:25:16;;;;;;;9.23;1.00;;;;;;;25.10;46.32;99934.84;30844207;28;20062;-81
2022/07/14 13:40:18;;;;;;;2.00;1.23;;;;;;;25.18;47.04;99932.97;30840743;28;20050;-79
2022/07/14 13:55:19;;;;;;;1.58;1.00;;;;;;;24.88;47.10;99941.38;30837826;28;20055;-70
2022/07/14 14:10:23;;;;;;;5.90;1.65;;;;;;;25.19;46.56;99967.06;30840019;28;20059;-77
2022/07/14 14:25:25;;;;;;;1.80;1.05;;;;;;;24.88;45.04;99965.59;30849570;28;20065;-78
2022/07/14 14:40:26;;;;;;;2.13;1.33;;;;;;;24.78;44.82;99982.63;30840789;28;20055;-82
2022/07/14 14:55:29;;;;;;;;;;;;;;;24.53;44.70;99978.31;30831741;28;20505;-80
2022/07/14 15:10:33;;;;;;;1.45;1.10;;;;;;;24.50;43.50;99987.66;30843431;28;19949;-76
2022/07/14 15:25:35;;;;;;;1.43;0.80;;;;;;;24.44;43.38;99998.03;30795981;28;20042;-79
2022/07/14 15:55:58;;;;;;;1.95;1.00;;;;;;;24.01;44.40;100017.97;30828423;28;20061;-79
2022/07/14 16:11:01;;;;;;;1.58;1.10;;;;;;;23.89;45.03;100010.97;30848498;28;20142;-84
2022/07/14 16:26:04;;;;;;;2.10;1.13;;;;;;;23.79;45.94;100018.09;30837557;28;20090;-79
2022/07/14 16:41:07;;;;;;;2.30;1.20;;;;;;;23.67;47.00;100044.34;30830545;28;20394;-77
2022/07/14 16:56:10;;;;;;;5.00;1.42;;;;;;;23.49;47.49;100062.28;30831399;28;20054;-71
2022/07/14 17:11:13;;;;;;;4.93;1.40;;;;;;;23.34;48.35;100079.19;30876159;28;20051;-82
2022/07/14 17:26:16;;;;;;;2.28;1.50;;;;;;;23.21;49.44;100086.50;30834982;28;20049;-71
2022/07/14 17:41:18;;;;;;;2.92;1.50;;;;;;;22.91;50.52;100091.84;30821692;28;20047;-71
2022/07/14 17:56:20;;;;;;;8.00;1.80;;;;;;;22.71;51.19;100101.84;31527193;23;20056;-70
2022/07/14 18:11:22;;;;;;;2.00;1.80;;;;;;;22.54;51.74;100131.50;31315464;28;20044;-71
2022/07/14 18:26:25;;;;;;;3.00;1.87;;;;;;;22.39;52.41;100130.97;31318458;28;20064;-72
2022/07/14 18:41:29;;;;;;;4.10;2.80;;;;;;;22.24;53.28;100141.47;31299379;28;20052;-72
2022/07/14 18:56:31;;;;;;;3.08;2.40;;;;;;;22.09;53.51;100145.19;31294824;28;20064;-72
2022/07/14 19:11:33;;;;;;;8.57;6.10;;;;;;;21.97;54.21;100151.88;31312327;28;20045;-72
2022/07/14 19:26:35;;;;;;;4.22;2.83;;;;;;;21.77;55.57;100155.56;31282692;28;20049;-73
2022/07/14 19:41:38;;;;;;;5.45;3.03;;;;;;;21.74;56.03;100164.06;31278710;28;20056;-72
2022/07/14 19:56:40;;;;;;;7.70;3.43;;;;;;;21.69;56.84;100170.34;31286379;28;20053;-71
2022/07/14 20:11:42;;;;;;;3.57;2.70;;;;;;;21.63;57.03;100161.25;31328611;28;20302;-73
2022/07/14 20:26:44;;;;;;;4.32;2.78;;;;;;;21.58;57.22;100173.03;31298814;28;20049;-73
2022/07/14 20:41:46;;;;;;;5.82;2.45;;;;;;;21.46;57.23;100179.72;31333233;28;20049;-71
2022/07/14 20:56:48;;;;;;;5.68;3.60;;;;;;;21.24;57.95;100181.09;31331440;28;20061;-72
2022/07/14 21:11:51;;;;;;;3.27;2.27;;;;;;;20.87;58.64;100197.50;31332436;28;20044;-72
2022/07/14 21:26:53;;;;;;;2.30;1.90;;;;;;;20.87;58.56;100192.00;31309860;28;20140;-72
2022/07/14 21:41:55;;;;;;;3.47;2.17;;;;;;;20.74;59.12;100184.09;31304388;28;20052;-71
2022/07/14 21:56:57;;;;;;;3.72;1.88;;;;;;;20.56;59.48;100184.41;31304456;28;20163;-72
2022/07/14 22:11:59;;;;;;;2.45;2.10;;;;;;;20.46;59.91;100180.28;31320557;28;20124;-71
2022/07/14 22:27:13;;;;;;;1.90;1.48;;;;;;;20.45;60.23;100178.78;31317070;28;20081;-71
2022/07/14 22:42:16;;;;;;;3.72;2.00;;;;;;;20.54;60.00;100192.41;31318210;28;20179;-70
2022/07/14 22:57:17;;;;;;;2.60;1.65;;;;;;;20.45;60.34;100189.81;31324674;28;20053;-71
2022/07/14 23:12:26;;;;;;;1.92;1.45;;;;;;;20.36;61.13;100204.44;31309765;28;20049;-72
2022/07/14 23:27:28;;;;;;;1.85;1.38;;;;;;;20.28;61.15;100208.88;31315242;28;20493;-72
2022/07/14 23:42:30;;;;;;;2.10;1.50;;;;;;;20.15;62.98;100215.94;31302748;28;20052;-70
2022/07/14 23:57:32;;;;;;;3.38;1.75;;;;;;;20.05;66.40;100207.84;31322697;28;20072;-71
